Time;durP1;ratioP1;P1;durP2;ratioP2;P2;SDS_P1;SDS_P2;PMS_P1;PMS_P2;Temp;Humidity;BMP_temperature;BMP_pressure;BME280_temperature;BME280_humidity;BME280_pressure;Samples;Min_cycle;Max_cycle;Signal;HPM_P1;HPM_P2
2022/06/01 00:01:00;;;;;;;30.00;25.20;;;;;;;8.50;100.00;101330.88;5100506;28;20028;-71
2022/06/01 00:03:30;;;;;;;30.38;25.20;;;;;;;8.46;100.00;101330.03;5108927;28;20077;-71
2022/06/01 00:05:55;;;;;;;32.92;25.80;;;;;;;8.39;100.00;101325.75;5110020;28;20107;-71
2022/06/01 00:08:21;;;;;;;29.83;25.02;;;;;;;8.37;100.00;101327.44;5104151;28;20103;-71
2022/06/01 00:10:47;;;;;;;30.60;25.23;;;;;;;8.38;100.00;101321.44;5102209;28;20055;-71
2022/06/01 00:13:13;;;;;;;30.58;26.02;;;;;;;8.38;100.00;101331.84;5095407;28;20477;-71
2022/06/01 00:15:38;;;;;;;36.75;26.48;;;;;;;8.36;100.00;101326.59;5107430;28;20515;-71
2022/06/01 00:18:03;;;;;;;33.05;27.10;;;;;;;8.34;100.00;101328.34;5100495;28;20387;-71
2022/06/01 00:20:29;;;;;;;33.38;26.92;;;;;;;8.38;100.00;101331.84;5107792;28;20020;-71
2022/06/01 00:22:56;;;;;;;39.38;29.60;;;;;;;8.40;100.00;101333.56;5104894;27;20128;-71
2022/06/01 00:25:22;;;;;;;37.03;29.17;;;;;;;8.44;100.00;101337.00;5102802;28;20744;-71
2022/06/01 00:27:47;;;;;;;35.15;29.00;;;;;;;8.47;100.00;101336.09;5104913;28;20107;-71
2022/06/01 00:30:14;;;;;;;39.80;29.73;;;;;;;8.53;100.00;101331.69;5099678;28;20137;-71
2022/06/01 00:32:40;;;;;;;42.67;31.13;;;;;;;8.58;100.00;101340.34;5095468;28;20028;-71
2022/06/01 00:35:06;;;;;;;39.28;30.50;;;;;;;8.63;100.00;101336.00;5108035;28;20360;-71
2022/06/01 00:37:32;;;;;;;41.25;31.88;;;;;;;8.66;100.00;101340.28;5109373;28;20039;-71
2022/06/01 00:39:57;;;;;;;39.45;30.60;;;;;;;8.71;100.00;101338.50;5109096;28;20027;-71
2022/06/01 00:42:29;;;;;;;39.65;31.83;;;;;;;8.69;100.00;101342.84;5096300;28;20471;-71
2022/06/01 00:44:54;;;;;;;41.55;31.52;;;;;;;8.70;100.00;101326.41;5113244;28;20027;-71
2022/06/01 00:47:21;;;;;;;41.20;31.17;;;;;;;8.70;100.00;101333.31;5108658;28;20024;-71
2022/06/01 00:49:52;;;;;;;38.88;30.98;;;;;;;8.63;100.00;101333.38;5112630;28;20024;-71
2022/06/01 00:52:35;;;;;;;38.42;29.83;;;;;;;8.59;100.00;101331.66;5092819;28;20060;-71
2022/06/01 00:55:12;;;;;;;36.00;30.02;;;;;;;8.53;100.00;101331.69;5095842;28;20070;-70
2022/06/01 00:57:38;;;;;;;37.70;30.52;;;;;;;8.46;100.00;101335.22;5110157;28;20028;-71
2022/06/01 01:00:13;;;;;;;40.75;31.77;;;;;;;8.43;100.00;101332.66;5096281;28;20032;-71
2022/06/01 01:02:39;;;;;;;41.25;30.88;;;;;;;8.40;100.00;101336.16;5098221;28;20084;-71
2022/06/01 01:05:07;;;;;;;38.90;30.55;;;;;;;8.37;100.00;101330.94;5110468;28;20036;-71
2022/06/01 01:07:34;;;;;;;40.47;31.90;;;;;;;8.34;100.00;101333.56;5112397;28;20027;-71
2022/06/01 01:09:59;;;;;;;38.17;31.58;;;;;;;8.28;100.00;101335.34;5109400;28;20028;-71
2022/06/01 01:12:24;;;;;;;40.05;30.73;;;;;;;8.30;100.00;101331.81;5103919;28;20035;-70
2022/06/01 01:14:51;;;;;;;41.50;32.90;;;;;;;8.30;100.00;101336.16;5112148;28;20057;-71
2022/06/01 01:17:16;;;;;;;45.10;34.20;;;;;;;8.34;100.00;101330.97;5106983;28;20040;-71
2022/06/01 01:19:48;;;;;;;49.10;33.72;;;;;;;8.38;100.00;101327.50;5103209;28;20483;-71
2022/06/01 01:22:40;;;;;;;47.25;34.15;;;;;;;8.43;100.00;101320.50;5098631;28;20098;-71
2022/06/01 01:25:15;;;;;;;45.45;34.22;;;;;;;8.43;100.00;101325.72;5093963;28;20032;-71
2022/06/01 01:27:41;;;;;;;46.72;33.42;;;;;;;8.41;100.00;101321.41;5101275;28;20031;-71
2022/06/01 01:30:31;;;;;;;44.03;32.85;;;;;;;8.36;100.00;101317.94;5097061;28;20031;-71
2022/06/01 01:32:57;;;;;;;46.28;33.15;;;;;;;8.26;100.00;101326.66;5105472;28;20063;-71
2022/06/01 01:35:22;;;;;;;43.60;31.77;;;;;;;8.20;100.00;101328.41;5104215;28;20108;-71
2022/06/01 01:37:50;;;;;;;43.90;34.22;;;;;;;8.21;100.00;101319.78;5098965;28;20055;-71
2022/06/01 01:40:15;;;;;;;48.13;35.00;;;;;;;8.25;100.00;101319.75;5108638;28;20031;-70
2022/06/01 01:42:41;;;;;;;47.63;34.22;;;;;;;8.24;100.00;101318.91;5108641;28;20035;-71
2022/06/01 01:45:24;;;;;;;52.08;34.63;;;;;;;8.26;100.00;101326.66;5111706;28;20425;-71
2022/06/01 01:47:51;;;;;;;47.95;35.10;;;;;;;8.21;100.00;101322.38;5104856;27;20032;-72
2022/06/01 01:50:18;;;;;;;45.10;33.63;;;;;;;8.18;100.00;101322.41;5096143;28;20020;-72
2022/06/01 01:52:45;;;;;;;47.65;35.10;;;;;;;8.20;100.00;101323.22;5099067;28;20028;-70
2022/06/01 01:55:23;;;;;;;47.47;35.60;;;;;;;8.25;100.00;101331.00;5100670;28;20117;-70
2022/06/01 01:57:52;;;;;;;48.83;36.40;;;;;;;8.21;100.00;101332.75;5113846;28;20034;-70
2022/06/01 02:00:30;;;;;;;49.38;35.63;;;;;;;8.13;100.00;101334.53;5106525;28;20073;-71
2022/06/01 02:03:09;;;;;;;48.90;35.63;;;;;;;8.07;100.00;101334.56;5108330;28;20395;-71
2022/06/01 02:08:38;;;;;;;45.88;34.30;;;;;;;7.97;100.00;101333.75;5106372;28;20525;-71
2022/06/01 02:14:25;;;;;;;47.03;35.00;;;;;;;7.88;100.00;101332.91;5113569;28;20039;-71
2022/06/01 02:17:16;;;;;;;46.33;35.63;;;;;;;7.83;100.00;101332.94;5094963;28;20055;-71
2022/06/01 02:19:47;;;;;;;49.05;36.30;;;;;;;7.78;100.00;101331.22;5087678;28;20043;-72
2022/06/01 02:22:13;;;;;;;50.22;35.78;;;;;;;7.72;100.00;101329.56;5113414;28;20027;-71
2022/06/01 02:24:40;;;;;;;52.58;36.85;;;;;;;7.65;100.00;101323.53;5109398;28;20042;-72
2022/06/01 02:27:07;;;;;;;52.30;37.20;;;;;;;7.67;100.00;101339.94;5112137;28;20042;-71
2022/06/01 02:29:39;;;;;;;52.92;37.08;;;;;;;7.66;100.00;101340.81;5098298;28;20032;-71
2022/06/01 02:32:05;;;;;;;54.15;37.60;;;;;;;7.69;100.00;101330.41;5107523;28;20138;-71
2022/06/01 02:34:31;;;;;;;53.78;38.30;;;;;;;7.69;100.00;101335.59;5097950;28;20506;-72
2022/06/01 02:36:59;;;;;;;53.70;38.38;;;;;;;7.65;100.00;101336.50;5107608;28;20031;-71
2022/06/01 02:39:27;;;;;;;55.53;37.72;;;;;;;7.64;100.00;101331.28;5115364;28;20039;-72
2022/06/01 02:44:49;;;;;;;51.15;37.42;;;;;;;7.53;100.00;101326.16;5094262;28;20043;-71
2022/06/01 02:47:17;;;;;;;51.97;37.10;;;;;;;7.54;100.00;101329.59;5112965;28;20039;-71
2022/06/01 02:49:42;;;;;;;52.15;37.70;;;;;;;7.51;100.00;101330.47;5114566;28;20015;-71
2022/06/01 02:52:08;;;;;;;52.63;37.42;;;;;;;7.47;100.00;101333.94;5103289;28;20027;-71
2022/06/01 02:54:33;;;;;;;54.83;37.00;;;;;;;7.46;100.00;101332.22;5098269;28;20047;-72
2022/06/01 02:56:58;;;;;;;48.67;35.90;;;;;;;7.40;100.00;101333.09;5097451;28;20031;-71
2022/06/01 02:59:25;;;;;;;53.08;36.55;;;;;;;7.37;100.00;101320.13;5094606;28;20135;-71
2022/06/01 03:01:51;;;;;;;49.40;36.42;;;;;;;7.35;100.00;101326.19;5106387;28;20440;-71
2022/06/01 03:04:16;;;;;;;49.70;35.60;;;;;;;7.33;100.00;101331.41;5114245;28;20035;-71
2022/06/01 03:06:41;;;;;;;52.65;35.72;;;;;;;7.30;100.00;101325.34;5107842;28;20473;-72
2022/06/01 03:09:06;;;;;;;50.20;36.05;;;;;;;7.27;100.00;101334.00;5100455;28;20484;-71
2022/06/01 03:11:32;;;;;;;53.00;35.47;;;;;;;7.23;100.00;101337.47;5113970;28;20137;-71
2022/06/01 03:13:57;;;;;;;53.42;36.08;;;;;;;7.19;100.00;101333.13;5106802;28;20341;-71
2022/06/01 03:16:23;;;;;;;53.47;34.78;;;;;;;7.13;100.00;101330.53;5104392;28;20108;-72
2022/06/01 03:18:48;;;;;;;52.20;36.05;;;;;;;7.12;100.00;101334.88;5113267;28;20019;-71
2022/06/01 03:21:14;;;;;;;52.00;36.22;;;;;;;7.13;100.00;101333.13;5112662;28;20080;-71
2022/06/01 03:23:40;;;;;;;48.50;35.15;;;;;;;7.08;100.00;101330.56;5113243;28;20051;-71
2022/06/01 03:26:05;;;;;;;50.97;35.15;;;;;;;7.10;100.00;101330.59;5112872;28;20032;-71
2022/06/01 03:28:31;;;;;;;51.08;35.30;;;;;;;7.09;100.00;101332.28;5103445;28;20110;-71
2022/06/01 03:30:56;;;;;;;50.15;34.28;;;;;;;7.07;100.00;101323.66;5097798;28;20029;-71
2022/06/01 03:33:23;;;;;;;51.75;34.15;;;;;;;7.04;100.00;101328.84;5109259;27;20024;-72
2022/06/01 03:35:48;;;;;;;50.65;35.40;;;;;;;7.04;100.00;101334.91;5111232;28;20028;-71
2022/06/01 03:38:13;;;;;;;49.75;33.97;;;;;;;7.04;100.00;101332.31;5111613;28;20023;-71
2022/06/01 03:40:39;;;;;;;46.47;33.22;;;;;;;7.03;100.00;101333.19;5112627;28;20027;-72
2022/06/01 03:43:05;;;;;;;49.05;34.00;;;;;;;7.06;100.00;101331.44;5097866;28;20058;-71
2022/06/01 03:48:16;;;;;;;45.42;31.52;;;;;;;7.02;100.00;101336.63;5112573;28;20610;-71
2022/06/01 03:50:44;;;;;;;44.75;32.80;;;;;;;7.03;100.00;101329.72;5112988;28;20032;-72
2022/06/01 03:53:09;;;;;;;48.17;31.20;;;;;;;7.04;100.00;101339.22;5110764;28;20524;-71
2022/06/01 03:55:37;;;;;;;52.78;32.67;;;;;;;7.03;100.00;101334.91;5109955;28;20039;-71
2022/06/01 03:58:03;;;;;;;47.63;32.60;;;;;;;7.08;100.00;101338.34;5106148;28;20426;-72
2022/06/01 04:00:29;;;;;;;46.33;32.60;;;;;;;7.10;100.00;101343.53;5105004;28;20030;-71
2022/06/01 04:02:54;;;;;;;48.47;32.08;;;;;;;7.12;100.00;101336.59;5093990;28;20028;-71
2022/06/01 04:05:22;;;;;;;47.05;32.05;;;;;;;7.18;100.00;101344.38;5112641;28;20506;-72
2022/06/01 04:07:47;;;;;;;45.60;30.95;;;;;;;7.15;100.00;101341.78;5103420;28;20072;-71
2022/06/01 04:10:12;;;;;;;48.50;32.42;;;;;;;7.17;100.00;101343.53;5094868;28;20054;-72
2022/06/01 04:12:38;;;;;;;49.05;33.53;;;;;;;7.20;100.00;101338.34;5108274;28;20592;-72
2022/06/01 04:15:08;;;;;;;53.58;32.53;;;;;;;7.23;100.00;101343.53;5109793;28;20024;-71
2022/06/01 04:17:34;;;;;;;49.67;31.65;;;;;;;7.25;100.00;101335.72;5093893;28;20023;-71
2022/06/01 04:19:59;;;;;;;48.05;31.58;;;;;;;7.24;100.00;101346.97;5102603;28;20015;-72
2022/06/01 04:22:24;;;;;;;48.28;31.20;;;;;;;7.25;100.00;101349.53;5110668;28;20409;-71
2022/06/01 04:24:50;;;;;;;44.50;30.88;;;;;;;7.29;100.00;101345.22;5097118;28;20035;-71
2022/06/01 04:27:15;;;;;;;48.53;30.67;;;;;;;7.35;100.00;101346.94;5093188;28;20035;-71
2022/06/01 04:29:41;;;;;;;47.17;30.27;;;;;;;7.40;100.00;101355.59;5108651;28;20174;-72
2022/06/01 04:32:13;;;;;;;50.40;30.63;;;;;;;7.43;100.00;101340.88;5103447;28;20027;-71
2022/06/01 04:34:38;;;;;;;52.05;31.73;;;;;;;7.46;100.00;101350.41;5095017;28;20077;-72
2022/06/01 04:37:04;;;;;;;46.83;30.90;;;;;;;7.53;100.00;101351.25;5106569;28;20029;-72
2022/06/01 04:39:30;;;;;;;49.15;30.40;;;;;;;7.55;100.00;101339.97;5096578;28;20055;-72
2022/06/01 04:41:55;;;;;;;43.15;29.30;;;;;;;7.61;100.00;101352.91;5108583;28;20043;-72
2022/06/01 04:44:21;;;;;;;44.17;29.90;;;;;;;7.63;100.00;101346.00;5111377;28;20031;-71
2022/06/01 04:46:46;;;;;;;46.65;29.73;;;;;;;7.66;100.00;101356.38;5098860;28;20028;-71
2022/06/01 04:49:11;;;;;;;48.58;30.25;;;;;;;7.72;100.00;101358.09;5102356;28;20020;-71
2022/06/01 04:51:37;;;;;;;45.35;30.02;;;;;;;7.78;100.00;101355.44;5099933;28;20035;-72
2022/06/01 04:54:04;;;;;;;42.45;28.30;;;;;;;7.79;100.00;101358.94;5104892;28;20115;-72
2022/06/01 04:56:29;;;;;;;41.53;27.05;;;;;;;7.79;100.00;101357.19;5109857;28;20157;-71
2022/06/01 04:58:55;;;;;;;45.97;27.70;;;;;;;7.79;100.00;101361.53;5110947;28;20106;-72
2022/06/01 05:01:20;;;;;;;42.30;27.05;;;;;;;7.80;100.00;101364.13;5105138;28;20038;-71
2022/06/01 05:03:46;;;;;;;43.72;27.67;;;;;;;7.82;100.00;101364.13;5108425;28;20033;-71
2022/06/01 05:06:11;;;;;;;40.88;27.40;;;;;;;7.78;100.00;101365.84;5110337;28;20024;-71
2022/06/01 05:08:37;;;;;;;41.13;25.98;;;;;;;7.82;100.00;101362.38;5097479;28;20036;-72
2022/06/01 05:11:03;;;;;;;38.00;26.17;;;;;;;7.87;100.00;101364.94;5098370;28;20020;-71
2022/06/01 05:13:28;;;;;;;36.55;25.80;;;;;;;7.94;100.00;101358.84;5094611;28;20379;-72
2022/06/01 05:15:57;;;;;;;39.22;26.08;;;;;;;8.03;100.00;101361.41;5099669;28;20066;-71
2022/06/01 05:18:23;;;;;;;37.47;24.98;;;;;;;8.08;100.00;101357.09;5104264;28;20027;-72
2022/06/01 05:20:49;;;;;;;37.72;25.63;;;;;;;8.15;100.00;101356.16;5108993;28;20038;-72
2022/06/01 05:23:16;;;;;;;34.83;23.42;;;;;;;8.23;100.00;101348.31;5093688;28;20123;-72
2022/06/01 05:25:43;;;;;;;38.50;23.85;;;;;;;8.31;100.00;101366.50;5098934;28;20036;-72
2022/06/01 05:28:09;;;;;;;41.13;25.70;;;;;;;8.38;100.00;101352.63;5105310;28;20027;-72
2022/06/01 05:30:34;;;;;;;38.25;23.48;;;;;;;8.45;100.00;101359.50;5104410;28;20066;-72
2022/06/01 05:33:00;;;;;;;31.40;21.15;;;;;;;8.47;100.00;101347.38;5106064;28;20055;-71
2022/06/01 05:35:25;;;;;;;38.42;23.42;;;;;;;8.63;100.00;101359.38;5110104;28;20123;-72
2022/06/01 05:37:50;;;;;;;35.35;22.23;;;;;;;8.68;100.00;101355.00;5093918;28;20035;-72
2022/06/01 05:40:16;;;;;;;38.67;23.77;;;;;;;8.76;100.00;101357.53;5093093;28;20111;-72
2022/06/01 05:42:41;;;;;;;35.38;23.67;;;;;;;8.87;100.00;101353.13;5111255;28;20035;-72
2022/06/01 05:45:09;;;;;;;34.97;22.35;;;;;;;8.93;100.00;101360.00;5102744;28;20020;-72
2022/06/01 05:47:35;;;;;;;36.10;22.45;;;;;;;9.00;100.00;101358.22;5105642;28;20035;-72
2022/06/01 05:50:00;;;;;;;30.42;21.50;;;;;;;9.10;100.00;101359.88;5111922;28;20417;-71
2022/06/01 05:52:25;;;;;;;32.58;21.35;;;;;;;9.18;100.00;101357.19;5111504;28;20390;-72
2022/06/01 05:54:51;;;;;;;32.60;21.73;;;;;;;9.28;100.00;101364.88;5095237;28;20098;-72
2022/06/01 05:57:16;;;;;;;34.97;25.15;;;;;;;9.40;100.00;101366.50;5100595;28;20038;-72
2022/06/01 05:59:41;;;;;;;37.92;23.73;;;;;;;9.48;100.00;101356.88;5110681;28;20034;-72
2022/06/01 06:02:07;;;;;;;41.63;24.23;;;;;;;9.61;100.00;101365.41;5099775;28;20528;-72
2022/06/01 06:04:33;;;;;;;34.65;22.63;;;;;;;9.71;100.00;101366.16;5108099;28;20077;-72
2022/06/01 06:06:58;;;;;;;36.20;23.60;;;;;;;9.85;100.00;101366.88;5103775;28;20027;-72
2022/06/01 06:09:24;;;;;;;31.77;23.08;;;;;;;9.93;100.00;101365.03;5104436;28;20062;-72
2022/06/01 06:11:51;;;;;;;33.83;21.90;;;;;;;9.97;100.00;101363.25;5099514;28;20564;-71
2022/06/01 06:14:17;;;;;;;35.47;21.45;;;;;;;9.99;100.00;101367.56;5098573;28;20062;-72
2022/06/01 06:16:43;;;;;;;29.15;21.38;;;;;;;10.02;100.00;101370.13;5107318;28;20020;-72
2022/06/01 06:19:09;;;;;;;31.70;21.73;;;;;;;10.05;100.00;101364.88;5101402;28;20032;-72
2022/06/01 06:21:35;;;;;;;35.78;23.67;;;;;;;10.13;100.00;101369.97;5106096;28;20497;-72
2022/06/01 06:24:03;;;;;;;41.33;23.63;;;;;;;10.24;100.00;101372.47;5106371;28;20035;-72
2022/06/01 06:26:29;;;;;;;38.75;22.92;;;;;;;10.33;100.00;101374.94;5110684;28;20106;-72
2022/06/01 06:28:54;;;;;;;36.65;23.67;;;;;;;10.46;100.00;101383.47;5111392;28;20032;-72
2022/06/01 06:31:19;;;;;;;35.90;22.58;;;;;;;10.50;100.00;101380.81;5108038;28;20046;-72
2022/06/01 06:33:45;;;;;;;32.17;21.95;;;;;;;10.60;100.00;101391.09;5102369;28;20059;-72
2022/06/01 06:36:13;;;;;;;29.80;20.35;;;;;;;10.61;100.00;101398.88;5112089;28;20076;-72
2022/06/01 06:38:39;;;;;;;28.00;20.33;;;;;;;10.62;100.00;101402.34;5110210;28;20019;-72
2022/06/01 06:41:05;;;;;;;32.05;20.70;;;;;;;10.63;100.00;101409.31;5106078;28;20571;-72
2022/06/01 06:43:33;;;;;;;31.92;21.02;;;;;;;10.67;100.00;101421.41;5101285;28;20415;-71
2022/06/01 06:46:02;;;;;;;35.90;21.08;;;;;;;10.69;100.00;101417.91;5112954;28;20027;-72
2022/06/01 06:48:28;;;;;;;32.33;21.17;;;;;;;10.73;100.00;101426.53;5104466;28;20028;-72
2022/06/01 06:50:54;;;;;;;28.27;19.48;;;;;;;10.77;100.00;101420.38;5099753;28;20569;-72
2022/06/01 06:53:20;;;;;;;28.05;19.35;;;;;;;10.85;100.00;101415.03;5115914;28;20118;-72
2022/06/01 06:55:45;;;;;;;29.23;18.85;;;;;;;10.89;100.00;101422.81;5100106;28;20484;-72
2022/06/01 06:58:11;;;;;;;24.58;17.95;;;;;;;10.90;100.00;101414.09;5094907;28;20027;-72
2022/06/01 07:00:37;;;;;;;28.67;18.48;;;;;;;10.97;100.00;101422.69;5098243;28;20106;-72
2022/06/01 07:03:04;;;;;;;27.75;18.50;;;;;;;11.13;100.00;101426.78;5113244;28;20427;-72
2022/06/01 07:08:14;;;;;;;24.77;17.95;;;;;;;11.46;100.00;101414.88;5095279;28;20043;-72
2022/06/01 07:10:39;;;;;;;23.55;18.20;;;;;;;11.62;100.00;101420.69;5109482;28;20023;-72
2022/06/01 07:13:05;;;;;;;27.73;19.00;;;;;;;11.66;100.00;101424.97;5114729;28;20027;-72
2022/06/01 07:15:30;;;;;;;25.75;17.48;;;;;;;11.61;100.00;101425.97;5102788;28;20055;-72
2022/06/01 07:17:55;;;;;;;20.05;16.75;;;;;;;11.60;100.00;101422.47;5113778;28;20471;-72
2022/06/01 07:20:21;;;;;;;30.02;18.80;;;;;;;11.58;100.00;101419.03;5105041;28;20031;-71
2022/06/01 07:22:47;;;;;;;29.23;17.63;;;;;;;11.63;100.00;101425.03;5101073;28;20124;-72
2022/06/01 07:25:12;;;;;;;19.90;13.68;;;;;;;11.66;100.00;101421.50;5094252;28;20184;-70
2022/06/01 07:27:38;;;;;;;27.33;15.57;;;;;;;11.72;100.00;101432.69;5095402;28;20107;-72
2022/06/01 07:30:05;;;;;;;17.25;12.88;;;;;;;11.75;100.00;101433.53;5098159;28;20032;-72
2022/06/01 07:32:31;;;;;;;20.02;12.75;;;;;;;11.83;100.00;101434.22;5100964;28;20107;-72
2022/06/01 07:34:56;;;;;;;16.88;12.93;;;;;;;11.94;100.00;101427.94;5096110;28;20106;-71
2022/06/01 07:43:08;;;;;;;17.33;13.18;;;;;;;12.37;100.00;101434.91;5094166;28;20170;-71
2022/06/01 07:45:45;;;;;;;20.05;14.88;;;;;;;12.54;100.00;101423.22;5104368;28;20054;-70
2022/06/01 07:48:11;;;;;;;17.88;15.13;;;;;;;12.84;100.00;101417.28;5114200;28;20020;-71
2022/06/01 07:50:37;;;;;;;15.60;12.55;;;;;;;13.22;100.00;101428.56;5113310;28;20025;-71
2022/06/01 07:53:06;;;;;;;15.70;12.05;;;;;;;13.47;96.67;101425.34;5113862;28;20024;-71
2022/06/01 07:55:31;;;;;;;16.67;12.63;;;;;;;13.50;100.00;101422.66;5109585;28;20403;-71
2022/06/01 07:57:57;;;;;;;14.30;11.18;;;;;;;13.57;97.45;101432.09;5093079;28;20028;-71
2022/06/01 08:00:23;;;;;;;14.95;11.00;;;;;;;13.67;97.84;101419.56;5110753;28;20024;-71
2022/06/01 08:02:49;;;;;;;10.70;8.90;;;;;;;13.54;94.43;101429.56;5109291;28;20041;-71
2022/06/01 08:05:16;;;;;;;9.85;8.25;;;;;;;13.53;97.07;101423.44;5092999;28;20085;-71
2022/06/01 08:07:43;;;;;;;13.45;8.38;;;;;;;13.46;96.40;101419.25;5092782;28;20039;-72
2022/06/01 08:10:10;;;;;;;9.40;7.05;;;;;;;13.35;93.84;101434.41;5100159;28;20020;-71
2022/06/01 08:15:20;;;;;;;;;;;;;;;13.30;100.00;101425.78;5093975;28;20035;-71
2022/06/01 08:17:47;;;;;;;9.18;7.22;;;;;;;13.40;95.68;101424.66;5107160;28;20009;-71
2022/06/01 08:20:13;;;;;;;12.38;8.30;;;;;;;13.28;92.85;101438.94;5111177;28;20035;-71
2022/06/01 08:22:40;;;;;;;13.85;8.90;;;;;;;13.18;98.21;101442.66;5112028;28;20024;-71
2022/06/01 08:25:07;;;;;;;14.55;8.57;;;;;;;13.17;98.70;101433.06;5107729;28;20039;-71
2022/06/01 08:27:32;;;;;;;12.07;8.60;;;;;;;13.24;99.57;101433.75;5113707;28;20139;-71
2022/06/01 08:29:58;;;;;;;9.23;6.78;;;;;;;13.31;93.75;101431.00;5110966;28;20060;-71
2022/06/01 08:32:23;;;;;;;8.98;7.60;;;;;;;13.49;91.52;101423.56;5093121;28;20028;-71
2022/06/01 08:34:49;;;;;;;9.90;8.18;;;;;;;13.79;89.77;101420.09;5093259;28;20047;-72
2022/06/01 08:37:14;;;;;;;12.45;9.63;;;;;;;14.16;93.66;101407.72;5093011;28;20024;-71
2022/06/01 08:39:39;;;;;;;10.35;8.38;;;;;;;14.61;91.87;101416.00;5092779;28;20081;-71
2022/06/01 08:42:05;;;;;;;13.02;8.48;;;;;;;14.97;83.94;101415.72;5094165;28;20024;-72
2022/06/01 08:44:32;;;;;;;12.27;8.30;;;;;;;15.09;87.22;101417.97;5092339;28;20039;-72
2022/06/01 08:47:03;;;;;;;9.95;8.18;;;;;;;15.03;87.59;101419.94;5092851;28;20020;-72
2022/06/01 08:49:33;;;;;;;10.13;7.53;;;;;;;15.06;84.82;101418.06;5093928;28;20069;-72
2022/06/01 08:51:59;;;;;;;8.73;6.15;;;;;;;15.17;83.96;101415.94;5109756;28;20479;-71
2022/06/01 08:54:25;;;;;;;9.32;6.70;;;;;;;15.28;85.32;101405.06;5112584;28;20139;-72
2022/06/01 08:56:58;;;;;;;12.63;6.65;;;;;;;15.40;83.07;101411.66;5112196;28;20391;-73
2022/06/01 09:00:04;;;;;;;9.88;5.63;;;;;;;15.21;85.71;101412.31;5097222;28;20024;-71
2022/06/01 09:02:32;;;;;;;7.70;5.38;;;;;;;15.54;81.84;101421.72;5094221;28;20119;-71
2022/06/01 09:05:09;;;;;;;7.65;5.90;;;;;;;15.86;78.97;101420.59;5092254;28;20495;-72
2022/06/01 09:07:55;;;;;;;7.97;6.63;;;;;;;15.80;83.92;101432.19;5098896;28;20031;-72
2022/06/01 09:10:39;;;;;;;7.40;6.10;;;;;;;15.57;81.28;101435.59;5108571;28;20066;-72
2022/06/01 09:13:23;;;;;;;9.18;6.10;;;;;;;15.26;81.84;101424.41;5096996;28;20023;-72
2022/06/01 09:15:58;;;;;;;;;;;;;;;15.42;85.19;101430.88;5107268;28;20027;-71
2022/06/01 09:18:27;;;;;;;7.50;5.88;;;;;;;15.59;83.58;101420.63;5110775;28;20124;-72
2022/06/01 09:23:39;;;;;;;7.03;5.97;;;;;;;15.81;73.43;101433.91;5092782;28;20034;-72
2022/06/01 09:26:05;;;;;;;7.25;6.53;;;;;;;15.51;75.85;101417.41;5092947;28;20043;-72
2022/06/01 09:28:38;;;;;;;8.75;6.57;;;;;;;15.35;79.12;101429.38;5100465;28;20020;-73
2022/06/01 09:31:42;;;;;;;7.75;7.03;;;;;;;15.44;83.19;101429.91;5095847;28;20054;-72
2022/06/01 09:34:25;;;;;;;7.78;6.70;;;;;;;15.99;82.26;101432.41;5049484;28;20033;-73
2022/06/01 09:37:05;;;;;;;10.90;7.80;;;;;;;16.48;78.13;101430.53;5049916;28;20175;-72
2022/06/01 09:39:31;;;;;;;9.40;7.60;;;;;;;16.75;71.26;101427.78;5085798;28;20050;-71
2022/06/01 09:42:28;;;;;;;9.45;7.45;;;;;;;16.66;76.95;101426.31;5094496;28;20058;-71
2022/06/01 09:44:57;;;;;;;8.70;7.75;;;;;;;16.34;73.34;101436.31;5106901;28;20055;-71
2022/06/01 09:47:39;;;;;;;12.55;7.57;;;;;;;16.33;73.28;101426.72;5105132;28;20059;-72
2022/06/01 09:50:33;;;;;;;8.85;6.82;;;;;;;16.52;74.97;101426.03;5104784;28;20090;-71
2022/06/01 09:53:11;;;;;;;7.32;6.53;;;;;;;16.49;70.09;101427.00;5094446;28;20265;-71
2022/06/01 09:55:54;;;;;;;10.68;7.13;;;;;;;16.51;75.04;101419.91;5096717;28;20063;-71
2022/06/01 10:07:04;;;;;;;4.93;3.85;;;;;;;16.39;69.62;101457.22;5100940;28;20070;-72
2022/06/01 10:09:32;;;;;;;4.32;3.38;;;;;;;16.12;70.92;101470.47;5095602;28;20118;-72
2022/06/01 10:11:58;;;;;;;4.65;3.92;;;;;;;16.09;71.42;101465.34;5096249;28;20056;-72
2022/06/01 10:14:27;;;;;;;8.10;4.20;;;;;;;15.83;70.07;101468.91;5096111;28;20030;-72
2022/06/01 10:17:17;;;;;;;6.65;4.30;;;;;;;15.33;75.09;101479.31;5095459;28;20028;-72
2022/06/01 10:20:13;;;;;;;8.02;5.18;;;;;;;14.75;75.53;101492.53;5095896;28;20024;-72
2022/06/01 10:22:45;;;;;;;13.88;5.93;;;;;;;14.25;73.80;101486.97;5094820;28;20085;-72
2022/06/01 10:25:35;;;;;;;11.07;5.20;;;;;;;13.86;76.03;101496.78;5095997;28;20032;-72
2022/06/01 10:28:06;;;;;;;6.32;4.95;;;;;;;13.45;79.45;101513.59;5096058;28;20047;-72
2022/06/01 10:30:43;;;;;;;5.18;4.38;;;;;;;13.20;77.94;101495.81;5094983;28;20031;-72
2022/06/01 10:33:17;;;;;;;10.20;4.85;;;;;;;13.30;83.50;101499.97;5095854;28;20024;-72
2022/06/01 10:35:56;;;;;;;5.53;4.90;;;;;;;13.50;82.20;101494.22;5095501;28;20498;-72
2022/06/01 10:38:46;;;;;;;5.40;4.63;;;;;;;13.51;82.65;101492.50;5095671;28;20444;-72
2022/06/01 10:41:22;;;;;;;5.05;4.55;;;;;;;13.54;83.20;101493.28;5095667;28;20028;-72
2022/06/01 10:43:54;;;;;;;7.22;4.68;;;;;;;13.84;83.46;101487.28;5094984;28;20020;-72
2022/06/01 10:46:23;;;;;;;7.22;4.40;;;;;;;14.86;79.54;101486.97;5095373;28;20035;-72
2022/06/01 10:49:26;;;;;;;6.90;4.40;;;;;;;15.66;76.38;101487.88;5095324;28;20054;-73
2022/06/01 10:52:25;;;;;;;4.82;4.43;;;;;;;15.97;75.94;101492.06;5094679;28;20114;-72
2022/06/01 10:55:06;;;;;;;5.57;3.97;;;;;;;16.31;73.24;101491.69;5095233;28;20094;-72
2022/06/01 10:57:34;;;;;;;5.32;3.90;;;;;;;16.47;72.36;101497.25;5094490;28;20103;-72
2022/06/01 11:00:00;;;;;;;4.55;3.67;;;;;;;16.23;66.92;101492.91;5095109;28;20111;-72
2022/06/01 11:02:43;;;;;;;4.00;3.70;;;;;;;16.15;74.37;101491.41;5095253;28;20062;-72
2022/06/01 11:05:23;;;;;;;5.50;3.50;;;;;;;16.12;73.84;101490.63;5094829;28;20036;-72
2022/06/01 11:08:03;;;;;;;6.95;3.60;;;;;;;15.78;69.89;101485.72;5095030;28;20077;-72
2022/06/01 11:10:52;;;;;;;6.25;3.47;;;;;;;15.39;74.33;101494.03;5095157;28;20058;-72
2022/06/01 11:13:36;;;;;;;5.78;2.90;;;;;;;15.11;72.89;101481.81;5094334;28;20375;-72
2022/06/01 11:16:10;;;;;;;3.08;2.72;;;;;;;14.92;77.09;101480.66;5095210;28;20016;-72
2022/06/01 11:18:47;;;;;;;2.72;2.53;;;;;;;15.04;76.40;101482.91;5093359;28;20028;-72
2022/06/01 11:21:29;;;;;;;3.63;2.80;;;;;;;15.52;71.56;101487.44;5094642;28;20026;-72
2022/06/01 11:24:25;;;;;;;2.53;2.33;;;;;;;16.41;73.74;101483.44;5094697;28;20028;-72
2022/06/01 11:27:15;;;;;;;2.53;1.80;;;;;;;17.25;67.40;101485.44;5093756;28;20395;-72
2022/06/01 11:29:58;;;;;;;3.78;1.70;;;;;;;17.68;66.88;101486.28;5094707;28;20028;-72
2022/06/01 11:32:58;;;;;;;4.32;1.80;;;;;;;18.33;70.33;101484.31;5094370;28;20067;-73
2022/06/01 11:35:46;;;;;;;2.88;1.98;;;;;;;18.86;65.72;101492.41;5094432;28;20384;-72
2022/06/01 11:38:16;;;;;;;2.60;1.60;;;;;;;18.92;59.48;101496.53;5094805;28;20099;-72
2022/06/01 11:41:00;;;;;;;2.78;1.95;;;;;;;18.91;59.73;101495.69;5093696;28;20073;-72
2022/06/01 11:43:31;;;;;;;3.42;1.38;;;;;;;19.19;53.65;101491.69;5094712;28;20028;-72
2022/06/01 11:46:05;;;;;;;2.10;1.73;;;;;;;19.06;55.00;101501.16;5094372;28;20080;-72
2022/06/01 11:48:36;;;;;;;4.25;2.00;;;;;;;18.89;54.04;101497.53;5094067;28;20024;-72
2022/06/01 11:51:08;;;;;;;5.88;2.10;;;;;;;19.17;54.28;101496.22;5094518;28;20039;-72
2022/06/01 11:53:35;;;;;;;2.20;1.92;;;;;;;19.77;49.83;101496.72;5093382;28;20020;-72
2022/06/01 11:56:22;;;;;;;2.53;2.30;;;;;;;21.77;55.88;101483.84;5093784;28;20052;-72
2022/06/01 11:59:06;;;;;;;3.55;2.50;;;;;;;23.52;49.03;101484.22;5094109;28;20103;-72